x

8570283 - Ocean City Inlet, Md (ocim2) Weather Station

4:54am - Thu 24th Jan 2019 All times are EST. -5 hours from GMT.

  • Wind
    14mph, 16mph gusts
  • Sea Temp 42°f
  • Air Temp 46°f
  • Sea Pressure 1008.9mb
  • 8570283 - Ocean City Inlet, Md
  • 8570283 - Ocean City Inlet, Md

More Historic Weather Station data

Upgrade to MSW Pro to gain access to the past 30 days of data for over 8000 Wavebouys and Weather Stations around the globe.

Join

Comparision Forecast

View Surf forecast
   
Thu 01/24 4:54am 14 16 mph 1008.9mb 42f 46f
4:48am 14 16 mph 1009.2mb 42f 46f
4:42am 14 15 mph 1009.3mb 42f 46f
4:36am 13 15 mph 1009.4mb 42f 46f
4:30am 14 16 mph 1009.7mb 42f 46f
4:24am 16 18 mph 1009.9mb 42f 47f
4:18am 17 20 mph 1010.2mb - -
4:12am 15 17 mph 1010.3mb 42f 47f
4:06am 15 17 mph 1010.5mb 42f 47f
4:00am 14 17 mph 1010.7mb 42f 47f
3:54am 14 16 mph 1010.8mb 42f 47f
3:48am 16 20 mph 1010.9mb - -
3:42am 16 18 mph 1011.1mb 42f 48f
3:36am 16 21 mph 1011.2mb 42f 48f
3:30am 17 21 mph 1011.4mb 42f 48f
3:24am 16 20 mph 1011.4mb 42f 48f
3:18am 16 20 mph 1011.4mb 42f 47f
3:12am 17 20 mph 1011.5mb 42f 47f
3:06am 17 21 mph 1011.6mb 42f 47f
3:00am 17 23 mph 1011.8mb 42f 48f
2:54am 21 26 mph 1011.8mb 42f 49f
2:48am 21 28 mph 1011.8mb 42f 49f
2:42am 18 26 mph 1011.9mb 42f 49f
2:36am 17 23 mph 1012.2mb 42f 49f
2:30am 14 21 mph 1012.3mb 42f 48f
2:24am 15 22 mph 1012.6mb 42f 48f
2:18am 15 21 mph 1012.8mb 42f 48f
2:12am 15 21 mph 1012.9mb 42f 48f
2:06am 16 23 mph 1012.9mb 42f 49f
2:00am 17 22 mph - - -
1:42am 20 30 mph 1013.2mb 42f 49f
1:36am 20 26 mph 1013.2mb 42f 49f
1:30am 21 30 mph 1013.2mb 42f 49f
1:24am 21 29 mph 1013.2mb 42f 49f
1:18am 22 31 mph 1013.3mb 42f 49f
1:12am 20 30 mph 1013.4mb 42f 49f
1:06am 20 26 mph 1013.4mb 42f 49f
1:00am 22 32 mph 1013.8mb 42f 49f
12:54am 21 24 mph 1013.9mb 42f 49f
12:48am 20 24 mph 1014.1mb 42f 48f
12:42am 18 22 mph 1014.3mb 42f 48f
12:36am 20 23 mph 1014.6mb 42f 48f
12:30am 18 22 mph 1014.7mb 42f 47f
12:24am 20 23 mph 1014.8mb 42f 47f
12:18am 18 22 mph 1014.9mb 42f 47f
12:12am 21 23 mph 1015.1mb 42f 47f
12:06am 20 23 mph 1015.3mb 42f 46f
12:00am 17 20 mph 1015.4mb 42f 46f
Wed 01/23 11:54pm 16 18 mph 1015.6mb 42f 45f
11:48pm 17 20 mph 1015.7mb 42f -
11:42pm 15 18 mph 1015.9mb 42f 45f
11:36pm 14 15 mph 1016.2mb 42f 45f
11:30pm 13 14 mph 1016.3mb 42f 45f
11:24pm 14 15 mph 1016.4mb 42f 45f
11:18pm 13 14 mph 1016.4mb 42f 44f
11:12pm 13 14 mph 1016.4mb 42f 44f
11:06pm 14 15 mph 1016.5mb 42f 45f
11:00pm 14 15 mph 1016.6mb 42f 45f
10:54pm 15 16 mph 1016.6mb 42f 45f
10:48pm 16 18 mph 1016.7mb 42f -
10:42pm 18 22 mph 1016.9mb 42f 46f
10:36pm 18 22 mph 1017mb 42f 46f
10:30pm 18 21 mph 1017.1mb 42f 47f
10:24pm 15 18 mph 1017.1mb 42f 46f
10:18pm 15 17 mph 1017.2mb 42f 46f
10:12pm 14 17 mph 1017.4mb 42f 46f
10:06pm 14 17 mph 1017.6mb 42f 46f
10:00pm 16 20 mph 1017.7mb 42f 46f
9:54pm 14 16 mph 1017.7mb 42f 46f
9:48pm 13 15 mph - - -
9:42pm 11 14 mph 1017.9mb 42f 46f
9:36pm 13 16 mph 1018.1mb 42f 45f
9:30pm 14 16 mph 1018.2mb 42f 45f
9:24pm 14 16 mph 1018.2mb 42f 44f
9:18pm 14 15 mph 1018.2mb 42f 44f
9:12pm 14 15 mph 1018.2mb 42f 44f
9:06pm 15 17 mph 1018.3mb 42f 45f
9:00pm 16 18 mph 1018.4mb 42f 45f
8:54pm 17 20 mph 1018.5mb 42f 45f
8:48pm 20 22 mph 1018.4mb 42f 45f
8:42pm 21 23 mph 1018.5mb 42f 46f
8:36pm 22 25 mph 1018.7mb 42f 46f
8:30pm 20 22 mph 1018.8mb 42f 46f
8:24pm 17 21 mph 1018.9mb 42f 45f
8:18pm 17 21 mph 1019mb 42f 45f
8:12pm 16 20 mph 1019.2mb 42f 45f
8:06pm 14 17 mph 1019.3mb 42f 45f
8:00pm 15 16 mph 1019.3mb 42f 45f
7:54pm 14 16 mph 1019.2mb 41f 45f
7:48pm 16 18 mph 1019.4mb 41f -
7:42pm 17 21 mph 1019.4mb 41f 46f
7:36pm 17 21 mph 1019.6mb 41f 46f
7:30pm 17 21 mph 1019.7mb 41f 46f
7:24pm 17 20 mph 1019.7mb 41f 46f
7:18pm 17 22 mph 1019.9mb 41f 47f
7:12pm 18 21 mph 1019.8mb 41f 47f
7:06pm 18 22 mph 1019.9mb 41f 46f
7:00pm 18 21 mph 1019.9mb 41f 46f
6:30pm 14 16 mph 1020.2mb 41f 46f
6:24pm 13 15 mph 1020.3mb 41f 45f
6:18pm 13 14 mph 1020.4mb 41f 45f
6:12pm 11 14 mph 1020.4mb 41f 45f
6:06pm 11 14 mph 1020.3mb 41f 45f
6:00pm 13 15 mph 1020.5mb 41f 44f
5:54pm 13 14 mph 1020.6mb 41f 44f
5:48pm 14 15 mph 1020.6mb 41f 44f
5:42pm 14 15 mph 1020.5mb 41f 44f
5:36pm 14 15 mph 1020.6mb 41f 44f
5:30pm 13 14 mph 1020.6mb 41f 44f
5:24pm 14 16 mph 1020.8mb 41f 44f
5:18pm 14 17 mph 1020.7mb 41f 44f
5:12pm 14 16 mph 1020.9mb 41f 44f
5:06pm 14 16 mph 1021mb 41f 44f
5:00pm 14 17 mph 1021.2mb 41f 44f
4:54pm 16 18 mph 1021.3mb 41f 44f
4:48pm 15 17 mph 1021.2mb 41f -
4:42pm 15 17 mph 1021.3mb 41f 44f
4:36pm 14 17 mph 1021.5mb 41f 44f
4:30pm 14 16 mph 1021.7mb 41f 45f
4:24pm 15 17 mph 1021.8mb 41f 45f
4:18pm 17 21 mph 1021.8mb 41f 45f
4:12pm 17 21 mph 1021.9mb 41f 46f
4:06pm 18 23 mph 1022.1mb 41f 46f
4:00pm 22 24 mph 1022.2mb 41f 46f
3:30pm 18 23 mph 1022.8mb 41f 47f
3:24pm 17 23 mph 1022.9mb 41f 47f
3:18pm 16 20 mph 1022.9mb 41f 46f
3:12pm 16 21 mph 1022.9mb 41f 46f
3:06pm 17 21 mph 1023mb 41f 46f
3:00pm 21 29 mph 1023mb 41f 47f
2:54pm 20 24 mph 1023.1mb 41f 48f
2:48pm 20 22 mph 1023.1mb 41f 48f
2:42pm 18 23 mph 1023.2mb 41f 48f
2:36pm 21 25 mph 1023.2mb 41f 48f
2:30pm 20 26 mph 1023.3mb 41f 48f
2:24pm 20 23 mph 1023.4mb 41f 47f
2:18pm 21 25 mph 1023.6mb 41f 47f
2:12pm 21 25 mph 1023.6mb 41f 46f
2:06pm 20 24 mph 1023.7mb 41f 46f
2:00pm 20 24 mph 1023.8mb 41f 46f
1:54pm 20 23 mph 1023.9mb 41f 46f
1:48pm 20 22 mph 1024.1mb 41f 46f
1:42pm 18 23 mph 1024.2mb 40f 48f
1:36pm 21 24 mph 1024.3mb 40f 49f
1:30pm 21 25 mph 1024.5mb 40f 49f
1:24pm 22 24 mph 1024.6mb 40f 49f
1:18pm 21 26 mph 1024.7mb 40f 49f
1:12pm 23 28 mph 1024.8mb 40f 49f
1:06pm 23 29 mph 1024.9mb 40f 48f
1:00pm 21 24 mph 1025mb 40f 47f
12:54pm 21 28 mph 1025.1mb 40f 48f
12:48pm 22 26 mph 1025.1mb 40f 48f
12:42pm 22 26 mph 1025.3mb 40f 48f
12:36pm 22 28 mph 1025.5mb 40f 49f
12:30pm 22 31 mph 1025.6mb 40f 48f
12:24pm 22 26 mph 1025.7mb 40f 47f
12:18pm 20 25 mph 1025.8mb 40f 47f
12:12pm 20 24 mph 1025.8mb 40f 46f
12:06pm 20 24 mph 1025.9mb 40f 45f
12:00pm 18 24 mph 1026mb 40f 45f
11:54am 18 23 mph 1026.3mb 40f 45f
11:48am 20 23 mph 1026.4mb - -
11:42am 17 22 mph 1026.5mb 40f 45f
11:36am 18 24 mph 1026.7mb 40f 45f
11:30am 15 20 mph 1026.9mb 40f 44f
11:24am 16 20 mph 1027.1mb 40f 43f
11:18am 16 20 mph 1027.1mb 40f 44f
11:12am 16 20 mph 1027.3mb 40f 43f
11:06am 16 20 mph 1027.4mb 40f 43f
11:00am 15 18 mph 1027.5mb 40f 42f
10:54am 15 17 mph 1027.5mb 40f 41f
10:48am 16 18 mph 1027.7mb 40f 42f
10:42am 16 20 mph 1027.9mb 40f 42f
10:36am 16 20 mph 1028mb 40f 42f
10:30am 17 18 mph 1028.2mb 40f 42f
10:24am 15 18 mph 1028.3mb 40f 43f
10:18am 15 20 mph 1028.4mb 40f 42f
10:12am 15 20 mph 1028.4mb 40f 42f
10:06am 15 17 mph 1028.4mb 40f 41f
10:00am 15 18 mph 1028.5mb 40f 41f
9:54am 14 16 mph 1028.4mb 40f 40f
9:48am 15 17 mph 1028.5mb 39f 40f
9:42am 14 20 mph 1028.5mb 39f 40f
9:36am 14 16 mph 1028.5mb 39f 38f
9:30am 14 17 mph 1028.5mb 39f 39f
9:24am 13 16 mph 1028.7mb 39f 39f
9:18am 13 14 mph - - -
9:12am 13 14 mph 1028.8mb 39f 37f
9:06am 13 14 mph 1028.8mb 39f 37f
9:00am 13 15 mph 1029mb 39f 36f
8:54am 13 15 mph 1029.1mb 39f 36f
8:48am 13 14 mph 1029.2mb 39f 36f
8:42am 11 14 mph 1029.2mb 39f 36f
8:36am 10 13 mph 1029.3mb 39f 35f
8:30am 10 13 mph 1029.5mb 39f 36f
8:24am 8 10 mph 1029.6mb 39f 36f
8:18am 8 10 mph 1029.7mb 39f 35f
8:12am 7 9 mph 1029.9mb 39f 35f
8:06am 7 9 mph 1030.2mb 39f 35f
8:00am 8 9 mph 1030.2mb 39f 35f
7:54am 9 13 mph 1030.2mb 39f 34f
7:48am 8 10 mph 1030mb 39f 34f
7:42am 8 10 mph 1030.2mb 39f 34f
7:36am 9 11 mph 1030.2mb 39f 34f
7:30am 9 11 mph 1030.3mb 39f 33f
7:24am 9 11 mph 1030.2mb 39f 33f
7:18am 9 11 mph 1030.3mb 39f 33f
7:12am 10 11 mph 1030.4mb 39f 33f
7:06am 10 13 mph 1030.5mb 39f 33f
7:00am 11 14 mph 1030.5mb 39f 33f
6:48am 11 14 mph 1030.8mb - -
6:42am 11 14 mph 1030.7mb 38f 33f
6:36am 11 14 mph 1030.9mb 38f 33f
6:30am 11 14 mph 1031mb 38f 33f
6:24am 10 11 mph 1031.2mb 37f 33f
6:18am 11 14 mph 1031.2mb 36f -
6:12am 11 15 mph 1031.3mb 36f 32f
6:06am 13 15 mph 1031.3mb 35f 33f
6:00am 11 14 mph 1031mb 35f 33f
5:54am 10 13 mph 1031.5mb 35f 33f
5:48am 13 16 mph 1031.6mb 35f 33f
5:42am 11 15 mph 1031.5mb 35f 33f
5:36am 10 13 mph 1031.6mb 35f 32f
5:30am 10 13 mph 1031.8mb 36f 32f
5:24am 10 13 mph 1031.7mb 36f 32f
5:18am 11 14 mph 1031.9mb 36f 32f
5:12am 10 13 mph 1031.8mb 36f 33f
5:06am 10 13 mph 1031.9mb 36f 33f
5:00am 11 14 mph 1032mb 36f 33f
4:42am 11 14 mph 1032.5mb 36f 33f
4:36am 10 13 mph 1032.6mb 37f 33f
4:30am 11 15 mph 1032.6mb 37f 33f
4:24am 10 15 mph 1032.6mb 37f 32f
4:18am 10 11 mph 1032.9mb 37f 32f
4:12am 10 13 mph 1032.9mb 37f 32f
4:06am 11 14 mph 1033.1mb 37f 32f
4:00am 10 14 mph 1033.1mb 37f 32f
3:42am 9 10 mph 1033.3mb 38f 32f
3:36am 10 13 mph 1033.4mb 38f 31f
3:30am 10 11 mph 1033.5mb 38f 32f
3:24am 9 10 mph 1033.7mb 39f 32f
3:18am 9 11 mph 1033.8mb 39f 32f
3:12am 9 10 mph 1033.8mb 39f 31f
3:06am 9 10 mph 1033.8mb 39f 31f
3:00am 9 11 mph 1034.2mb 39f 32f
2:54am 8 9 mph 1034.5mb 39f 32f
2:48am 9 14 mph 1034.7mb 39f 32f
2:42am 9 11 mph 1034.9mb 39f 33f
2:36am 10 14 mph 1034.9mb 39f 33f
2:30am 9 11 mph 1034.9mb 39f 33f
2:24am 10 13 mph 1034.9mb 39f 34f
2:18am 8 11 mph 1035mb 39f 34f
2:12am 9 10 mph 1035mb 39f 34f
2:06am 8 10 mph 1035mb 39f 34f
2:00am 10 13 mph 1034.9mb 39f 33f
1:54am 9 13 mph 1034.8mb 39f 33f
1:48am 8 11 mph 1034.6mb 39f 33f
1:42am 9 10 mph 1034.8mb 39f 33f
1:36am 8 10 mph 1034.7mb 39f 33f
1:30am 9 11 mph 1034.8mb 39f 33f
1:24am 10 13 mph 1034.7mb 39f 33f
1:18am 11 14 mph 1034.7mb 39f 34f
1:12am 13 15 mph 1034.8mb 39f 34f
1:06am 11 14 mph 1034.9mb 39f 34f
1:00am 10 14 mph 1035.1mb 39f 33f
12:30am 9 10 mph 1036.1mb 39f 33f
12:24am 8 9 mph 1036.2mb 39f 33f
12:18am 9 11 mph 1036.5mb 39f 33f
12:12am 10 14 mph 1036.5mb 39f 33f
12:06am 9 11 mph 1036.4mb 39f 33f
12:00am 9 13 mph 1036.6mb 40f 33f
Tue 01/22 11:30pm 10 13 mph 1036.6mb 40f 32f
11:24pm 10 13 mph 1036.9mb 40f 32f
11:18pm 10 13 mph 1036.8mb 40f 32f
11:12pm 11 15 mph 1036.7mb 40f 32f
11:06pm 11 14 mph 1036.7mb 40f 32f
11:00pm 10 14 mph 1036.7mb 40f 32f
10:54pm 11 14 mph 1037mb 40f 32f
10:48pm 11 15 mph 1036.9mb 40f 32f
10:42pm 11 14 mph 1037.2mb 40f 32f
10:36pm 11 14 mph 1037.1mb 40f 32f
10:30pm 11 13 mph 1037.1mb 40f 32f
10:24pm 11 14 mph 1037.1mb 40f 32f
10:18pm 11 14 mph 1037mb 40f 32f
10:12pm 13 18 mph 1037.3mb 40f 32f
10:06pm 10 16 mph 1037.2mb 40f 32f
10:00pm 10 13 mph 1037.3mb 40f 31f
9:54pm 10 13 mph 1037.5mb 40f 31f
9:48pm 9 11 mph - - -
9:42pm 8 9 mph 1037.6mb 40f 31f
9:36pm 8 10 mph 1037.9mb 40f 31f
9:30pm 7 9 mph 1037.9mb 40f 31f
9:24pm 11 16 mph 1037.7mb 40f 32f
9:18pm 7 11 mph 1037.9mb 40f 31f
9:12pm 11 16 mph 1038.1mb 40f 33f
9:06pm 8 13 mph 1037.9mb 40f 32f
9:00pm 10 13 mph 1038.1mb 40f 33f
8:54pm 11 15 mph 1038.2mb 40f 32f
8:48pm 8 13 mph 1038.1mb 40f -
8:42pm 9 15 mph 1038.1mb 40f 32f
8:36pm 10 13 mph 1038.2mb 40f 32f
8:30pm 8 11 mph 1038.5mb 40f 32f
8:24pm 8 10 mph 1038.4mb 40f 32f
8:18pm 7 9 mph 1038.3mb 40f 32f
8:12pm 7 10 mph 1038.3mb 40f 32f
8:06pm 6 8 mph 1038.5mb 40f 31f
8:00pm 7 9 mph 1038.5mb 40f 30f
7:54pm 6 7 mph 1038.6mb 40f 30f
7:48pm 5 6 mph - - -
7:42pm 6 7 mph 1038.4mb 40f 31f
7:36pm 7 8 mph 1038.5mb 39f 30f
7:30pm 6 7 mph 1038.5mb 39f 30f
7:24pm 8 9 mph 1038.4mb 39f 31f
7:18pm 7 9 mph 1038.2mb - -
7:12pm 7 8 mph 1038.2mb 39f 30f
7:06pm 7 8 mph 1038.3mb 38f 30f
7:00pm 7 9 mph 1038.4mb 38f 30f
6:54pm 9 11 mph 1038.6mb 37f 30f
6:48pm 6 8 mph 1038.5mb 37f 30f
6:42pm 5 5 mph 1038.4mb 36f 30f
6:36pm 5 5 mph 1038.7mb 35f 30f
6:30pm 6 7 mph 1038.7mb 35f 31f
6:24pm 6 7 mph 1038.6mb 35f 31f
6:18pm 5 7 mph 1038.6mb 35f 31f
6:12pm 6 7 mph 1038.7mb 35f 31f
6:06pm 5 7 mph 1038.5mb 35f 31f
6:00pm 5 6 mph 1038.5mb 35f 31f
5:54pm 2 5 mph 1038.5mb 35f 31f
5:48pm 3 5 mph 1038.5mb 35f 31f
5:42pm 3 6 mph 1038.4mb 35f 31f
5:36pm 3 6 mph 1038.4mb 35f 31f
5:30pm 3 6 mph 1038.5mb - -
5:24pm 3 5 mph 1038.5mb 35f 31f
5:18pm 3 6 mph 1038.4mb 35f 31f
5:12pm 3 5 mph 1038.4mb 35f 31f
5:06pm 3 5 mph 1038.3mb 35f 31f
5:00pm 3 5 mph 1038.4mb 35f 31f
4:54pm 5 7 mph 1038.2mb 35f 31f
4:48pm 3 6 mph 1038.3mb 35f 31f
4:42pm 3 6 mph 1038.4mb 36f 32f
4:36pm 5 7 mph 1038.3mb 36f 32f
4:30pm 6 7 mph 1038.3mb 36f 32f
4:24pm 6 8 mph 1038.3mb 36f 32f
4:18pm 5 7 mph 1038.2mb 36f 32f
4:12pm 5 6 mph 1038.2mb 36f 32f
4:06pm 5 6 mph 1038.4mb 36f 33f
4:00pm 6 6 mph 1038.5mb 36f 33f
3:54pm 6 8 mph 1038.5mb 37f 33f
3:48pm 5 7 mph 1038.5mb 37f 34f
3:42pm 5 6 mph 1038.5mb 37f 35f
3:36pm  -  1 mph 1038.5mb 37f 35f
3:30pm  -  2 mph 1038.8mb 37f 35f
3:24pm 2 5 mph 1038.6mb 37f 33f
3:18pm 3 5 mph 1038.6mb 37f 33f
3:12pm 5 6 mph 1038.7mb 38f 33f
3:06pm 5 6 mph 1038.7mb 38f 32f
3:00pm 5 6 mph 1038.6mb 38f 32f
2:54pm 5 6 mph 1038.5mb 38f 32f
2:48pm 5 6 mph - - -
2:42pm 5 7 mph 1038.6mb 37f 32f
2:36pm 5 7 mph 1038.7mb 37f 32f
2:30pm 6 7 mph 1038.7mb 37f 31f
2:24pm 3 6 mph 1038.8mb 37f 31f
2:18pm 6 7 mph 1038.8mb 37f 31f
2:12pm 6 8 mph 1039.1mb 37f 31f
2:06pm 6 8 mph 1039.1mb 37f 31f
2:00pm 5 7 mph 1039.2mb 37f 31f
1:54pm 5 6 mph 1039.3mb 37f 30f
1:48pm 7 8 mph 1039.3mb 37f 30f
1:42pm 6 7 mph 1039.2mb 38f 29f
1:36pm 3 5 mph 1039.3mb 38f 29f
1:30pm 3 5 mph 1039.2mb 38f 29f
1:24pm 3 6 mph 1039.3mb 38f 29f
1:18pm 3 6 mph 1039.3mb 37f 29f
1:12pm 3 5 mph 1039.3mb 37f 28f
1:06pm 5 6 mph 1039.4mb 36f 28f
1:00pm 6 8 mph 1039.5mb 36f 27f
12:54pm 5 8 mph 1039.5mb 36f 28f
12:48pm 6 8 mph 1039.5mb 36f -
12:42pm 6 7 mph 1039.6mb 36f 27f
12:36pm 6 9 mph 1039.6mb 36f 27f
12:30pm 5 7 mph 1039.8mb 37f 26f
12:24pm 6 9 mph 1039.6mb 38f 26f
12:18pm 7 9 mph 1039.6mb 38f 26f
12:12pm 7 8 mph 1039.5mb 38f 26f
12:06pm 7 9 mph 1039.8mb 38f 26f
12:00pm 7 11 mph 1039.9mb 38f 25f
11:54am 9 13 mph 1040.1mb 38f 25f
11:48am 7 10 mph 1040.2mb 37f 25f
11:42am 10 14 mph 1040mb 37f 25f
11:36am 6 9 mph 1040.2mb 37f 25f
11:30am 9 13 mph 1040.3mb 37f 24f
11:24am 10 15 mph 1040.4mb 38f 24f
11:18am 9 11 mph 1040.6mb 38f 24f
11:12am 10 13 mph 1040.9mb 38f 24f
11:06am 8 10 mph 1040.9mb 38f 23f
11:00am 10 13 mph 1041mb 38f 23f
10:54am 11 14 mph 1041mb 39f 23f
10:48am 10 13 mph 1041mb 39f 22f
10:42am 13 14 mph 1041.1mb 39f 22f
10:36am 11 14 mph 1041mb 39f 22f
10:30am 13 15 mph 1041mb 39f 22f
10:24am 11 14 mph 1041mb 38f 22f
10:18am 11 15 mph 1040.9mb 38f -
10:12am 13 16 mph 1040.7mb 38f 21f
10:06am 11 14 mph 1040.9mb 38f 21f
10:00am 14 17 mph 1040.7mb 39f 21f
9:54am 11 13 mph 1040.7mb 39f 21f
9:48am 11 14 mph 1040.6mb 39f 20f
9:42am 11 14 mph 1040.6mb 39f 20f
9:36am 11 14 mph 1040.6mb 39f 20f
9:30am 14 16 mph 1040.4mb 39f 20f
9:24am 13 16 mph 1040.5mb 39f 20f
9:18am 13 16 mph 1040.6mb - -
9:12am 14 17 mph 1040.4mb 39f 20f
9:06am 14 21 mph 1040mb 39f 19f
9:00am 14 18 mph 1040mb 39f 20f
8:54am 15 17 mph 1040mb 39f 19f
8:48am 15 17 mph 1040.1mb 39f 19f
8:42am 15 22 mph 1039.9mb 39f 19f
8:36am 15 21 mph 1040mb 39f 18f
8:30am 16 20 mph 1039.9mb 39f 18f
8:24am 14 17 mph 1039.8mb 39f 18f
8:18am 17 21 mph 1039.8mb 39f -
8:12am 15 17 mph 1039.5mb 39f 19f
8:06am 17 21 mph 1039.3mb 39f 18f
8:00am 17 21 mph 1039.4mb 39f 18f
7:54am 14 18 mph 1039.3mb 38f 18f
7:48am 16 20 mph 1039.2mb 38f 18f
7:42am 15 20 mph 1039.2mb 38f 17f
7:36am 15 22 mph 1039.1mb 38f 18f
7:30am 16 21 mph 1039mb 38f 18f
7:24am 16 20 mph 1038.5mb 38f 18f
7:18am 15 21 mph 1038.5mb 38f 18f
7:12am 17 22 mph 1038.4mb 38f 18f
7:06am 16 21 mph 1038.3mb 38f 18f
7:00am 16 20 mph 1038.4mb 38f 17f
6:54am 16 22 mph 1038.4mb 38f 17f
6:48am 15 20 mph 1038.5mb 38f -
6:42am 14 17 mph 1038.6mb 38f 18f
6:36am 15 20 mph 1038.6mb 38f 17f
6:30am 15 18 mph 1038.6mb 38f 17f
6:24am 14 20 mph 1038.4mb 38f 17f
6:18am 14 18 mph 1038.4mb 37f 17f
6:12am 13 18 mph 1038.5mb 36f 17f
6:06am 13 17 mph 1038.5mb 35f 17f
6:00am 14 17 mph 1038.4mb 35f 18f
5:54am 16 21 mph 1038mb 33f 17f
5:48am 11 15 mph 1037.9mb 31f 17f
5:42am 15 20 mph 1037.9mb 30f 17f
5:36am 18 23 mph 1037.9mb 30f 17f
5:30am 15 22 mph 1037.8mb 30f 18f
5:24am 18 23 mph 1037.6mb 30f 18f
5:18am 17 22 mph 1037.6mb 30f 18f
5:12am 17 22 mph 1037.5mb 30f 18f
5:06am 21 24 mph 1037.5mb 30f 18f
5:00am 15 20 mph 1037.4mb 30f 17f
4:54am 18 22 mph 1037.2mb 30f 17f
4:48am 18 24 mph 1037.1mb 30f 17f
4:42am 18 25 mph 1037.1mb 30f 17f
4:36am 15 18 mph 1037.3mb 30f 18f
4:30am 13 17 mph 1037.3mb 30f 18f
4:24am 14 16 mph 1037.2mb 30f 18f
4:18am 15 20 mph 1037.3mb - -
4:12am 11 16 mph 1037.4mb 30f 17f
4:06am 14 17 mph 1037.2mb 30f 18f
4:00am 15 21 mph 1037.1mb 31f 18f
3:54am 15 21 mph 1037mb 31f 18f
3:48am 15 20 mph 1036.9mb 31f 18f
3:42am 18 22 mph 1036.8mb 31f 18f
3:36am 17 22 mph 1036.8mb 31f 17f
3:30am 14 18 mph 1036.8mb 31f 18f
3:24am 14 17 mph 1036.8mb 31f 18f
3:18am 14 17 mph 1036.9mb 31f 18f
3:12am 13 18 mph 1036.9mb 31f 18f
3:06am 14 18 mph 1036.8mb 31f 18f
3:00am 13 15 mph 1036.8mb 31f 18f
2:54am 14 17 mph 1036.7mb 31f 18f
2:48am 14 17 mph 1036.7mb 31f 18f
2:42am 13 16 mph 1036.9mb 31f 18f
2:36am 15 18 mph 1036.6mb 32f 18f
2:30am 14 16 mph 1036.3mb 32f 18f
2:24am 11 16 mph 1036.3mb 32f 18f
2:18am 13 17 mph 1036.3mb 32f 18f
2:12am 13 15 mph 1036.2mb 33f 18f
2:06am 11 14 mph 1036mb 33f 18f
2:00am 14 17 mph 1035.8mb 33f 18f
1:54am 11 17 mph 1035.8mb 33f 18f
1:48am 14 21 mph 1035.6mb 33f 18f
1:42am 13 16 mph 1035.5mb 32f 18f
1:36am 13 16 mph 1035.4mb 32f 19f
1:30am 11 14 mph 1035.4mb 32f 19f
1:24am 10 14 mph 1035.5mb 33f 19f
1:18am 11 16 mph 1035.5mb 33f 19f
1:12am 14 18 mph 1035.3mb 33f 19f
1:06am 17 22 mph 1035.3mb 33f 19f
1:00am 16 23 mph 1035.2mb 34f 19f
12:54am 16 23 mph 1035.2mb 34f 19f
12:48am 16 25 mph 1035.2mb 35f 19f
12:42am 10 15 mph 1035.2mb 35f 19f
12:36am 11 16 mph 1035.1mb 35f 19f
12:30am 14 21 mph 1034.9mb 36f 19f
12:24am 14 18 mph 1034.9mb 36f 19f
12:18am 11 14 mph 1034.8mb 36f 19f
12:12am 15 20 mph 1034.7mb 36f 19f
12:06am 16 21 mph 1034.7mb 36f 19f
12:00am 15 18 mph 1034.7mb 36f 19f
Mon 01/21 11:54pm 16 22 mph 1034.7mb 37f 20f
11:48pm 14 18 mph 1034.8mb 37f 20f
11:42pm 15 22 mph 1034.5mb 37f 20f
11:36pm 15 21 mph 1034.3mb 37f 20f
11:30pm 15 22 mph 1034.2mb 38f 20f
11:24pm 16 18 mph 1034.2mb 38f 20f
11:18pm 14 18 mph 1034.2mb 38f 20f
11:12pm 16 21 mph 1034.1mb 38f 20f
11:06pm 14 20 mph 1034.1mb 38f 20f
11:00pm 13 16 mph 1034mb 38f 20f
10:54pm 10 15 mph 1034.1mb 38f 20f
10:48pm 10 13 mph 1034mb 38f 20f
10:42pm 14 17 mph 1034mb 38f 21f
10:36pm 16 22 mph 1033.9mb 38f 21f
10:30pm 16 22 mph 1034mb 38f 21f
10:24pm 17 23 mph 1033.9mb 38f 21f
10:18pm 16 26 mph 1033.7mb 38f 20f
10:12pm 14 21 mph 1033.8mb 38f 21f
10:06pm 13 17 mph 1033.7mb 38f 20f
10:00pm 14 23 mph 1033.4mb 38f 21f
9:54pm 18 22 mph 1033.3mb 38f 21f
9:48pm 16 21 mph 1033.3mb 38f 21f
9:42pm 17 23 mph 1033.2mb 38f 21f
9:36pm 16 21 mph 1033.2mb 39f 21f
9:30pm 18 25 mph - - -
9:24pm 16 22 mph 1033mb 40f 21f
9:18pm 15 22 mph 1032.8mb 40f 21f
9:12pm 14 18 mph 1032.7mb 40f 21f
9:06pm 15 18 mph 1032.5mb 40f 21f
9:00pm 14 21 mph 1032.4mb 40f 21f
8:54pm 15 20 mph 1032.5mb 40f 21f
8:48pm 14 17 mph 1032.4mb 40f 21f
8:42pm 13 17 mph 1032.4mb 40f 21f
8:36pm 14 17 mph 1032.2mb 40f 21f
8:30pm 15 22 mph - - -
8:24pm 14 17 mph 1032mb 40f 21f
8:18pm 15 21 mph 1031.9mb 40f 22f
8:12pm 15 18 mph 1031.8mb 40f 21f
8:06pm 14 18 mph 1031.7mb 40f 22f
8:00pm 17 23 mph 1031.5mb 40f 21f
7:54pm 15 21 mph 1031.5mb 40f 21f
7:48pm 13 16 mph 1031.4mb 40f 21f
7:42pm 14 20 mph 1031.3mb 40f 21f
7:36pm 13 16 mph 1031.1mb 39f 22f
7:30pm 13 16 mph 1030.9mb 39f 21f
7:24pm 15 20 mph 1030.8mb 39f 21f
7:18pm 16 21 mph 1030.6mb 39f 21f
7:12pm 13 17 mph 1030.5mb 39f 22f
7:06pm 15 20 mph 1030.3mb 38f 21f
7:00pm 13 17 mph 1030.2mb - -
6:54pm 11 15 mph 1030.2mb 37f 21f
6:48pm 14 17 mph 1030.1mb 36f 21f
6:42pm 9 14 mph 1030mb 36f 21f
6:36pm 11 18 mph 1029.9mb 35f 21f
6:30pm 11 15 mph 1029.8mb - -
6:24pm 13 17 mph 1029.6mb 34f 21f
6:18pm 11 15 mph 1029.5mb 34f 21f
6:12pm 15 20 mph 1029.3mb 34f 21f
6:06pm 15 18 mph 1029.3mb 34f 21f
6:00pm 14 18 mph 1029.2mb 34f 22f
5:54pm 15 23 mph 1029mb 34f 22f
5:48pm 18 26 mph 1028.9mb 34f 21f
5:42pm 21 26 mph 1028.7mb 34f 21f
5:36pm 14 25 mph 1028.6mb 34f 22f
5:30pm 15 22 mph 1028.5mb 34f 22f
5:24pm 16 22 mph 1028.4mb 34f 21f
5:18pm 17 22 mph 1028.2mb 34f 21f
5:12pm 15 24 mph 1028.1mb 34f 21f
5:06pm 16 22 mph 1028mb 34f 22f
5:00pm 17 23 mph 1027.9mb 34f -
4:54pm 20 26 mph 1027.8mb 34f 22f
4:48pm 22 30 mph 1027.6mb 34f 22f
4:42pm 18 25 mph 1027.5mb 34f 22f
4:36pm 20 26 mph 1027.3mb 34f 22f
4:30pm 20 29 mph 1027.3mb 34f 22f
4:24pm 18 24 mph 1027.2mb 34f 22f
4:18pm 18 26 mph 1027.1mb 34f 22f
4:12pm 22 30 mph 1027mb 35f 22f
4:06pm 22 29 mph 1027mb 35f 22f
4:00pm 22 31 mph 1026.9mb 35f 22f
3:54pm 22 31 mph 1026.8mb 35f 22f
3:48pm 22 29 mph 1026.6mb 35f 22f
3:42pm 24 33 mph 1026.4mb 35f 22f
3:36pm 25 34 mph 1026.2mb 35f 22f
3:30pm 26 34 mph 1026mb 35f 21f
3:24pm 22 32 mph 1026mb 35f 22f
3:18pm 22 28 mph 1026mb 35f 22f
3:12pm 20 25 mph 1025.8mb 35f 22f
3:06pm 23 31 mph 1025.7mb 35f 21f
3:00pm 20 28 mph 1025.6mb 35f 21f
2:54pm 18 26 mph 1025.6mb 35f 22f
2:48pm 18 24 mph - - -
2:42pm 20 29 mph 1025.3mb 35f 22f
2:36pm 22 28 mph 1025.2mb 35f 21f
2:30pm 25 36 mph 1025.1mb 35f 21f
2:24pm 29 36 mph 1025.1mb 36f 21f
2:18pm 30 39 mph 1025mb 36f 21f
2:12pm 23 33 mph 1024.9mb 36f 21f
2:06pm 25 33 mph 1024.9mb 36f 21f
2:00pm 22 30 mph 1024.8mb 36f 21f
1:54pm 24 31 mph 1024.8mb 37f 21f
1:48pm 25 32 mph 1024.8mb 37f 20f
1:42pm 24 30 mph 1024.8mb 37f 21f
1:36pm 25 37 mph 1024.8mb 37f 20f
1:30pm 24 33 mph 1024.8mb - -
1:24pm 26 33 mph 1024.7mb 38f 20f
1:18pm 23 30 mph 1024.7mb 38f 20f
1:12pm 25 36 mph 1024.6mb 38f 20f
1:06pm 22 31 mph 1024.7mb 38f 20f
1:00pm 22 31 mph 1024.6mb 38f 20f
12:54pm 23 31 mph 1024.6mb 38f 20f
12:48pm 28 36 mph 1024.5mb 38f -
12:42pm 25 31 mph 1024.5mb 38f 20f
12:36pm 26 36 mph 1024.5mb 39f 19f
12:30pm 22 34 mph 1024.3mb 39f 19f
12:24pm 20 29 mph 1024.4mb 39f 20f
12:18pm 20 28 mph 1024.5mb - -
12:12pm 24 32 mph 1024.5mb 39f 20f
12:06pm 20 26 mph 1024.5mb 39f 20f
12:00pm 20 29 mph 1024.6mb 39f 19f
11:54am 26 37 mph 1024.4mb 40f 19f
11:48am 22 29 mph 1024.4mb 40f 19f
11:42am 23 32 mph 1024.5mb 40f 19f
11:36am 24 33 mph 1024.5mb 40f 19f
11:30am 20 30 mph 1024.5mb 40f 19f
11:24am 24 31 mph 1024.3mb 40f 19f
11:18am 24 34 mph 1024.3mb - -
11:12am 26 36 mph 1024.2mb 40f 18f
11:06am 25 34 mph 1024.2mb 40f 19f
11:00am 22 29 mph 1024mb 40f 19f
10:54am 26 33 mph 1024.1mb 40f 19f
10:48am 28 40 mph 1024.2mb 40f 19f
10:42am 28 37 mph 1024.1mb 40f 18f
10:36am 22 29 mph 1023.9mb 40f 19f
10:30am 24 33 mph 1023.9mb 40f 18f
10:24am 23 32 mph 1023.8mb 40f 18f
10:18am 21 28 mph 1023.8mb 40f 18f
10:12am 25 38 mph 1023.7mb 40f 18f
10:06am 25 33 mph 1023.6mb 40f 18f
10:00am 29 37 mph - - -
9:54am 28 36 mph 1023.4mb 41f 18f
9:48am 28 34 mph 1023.3mb 41f 18f
9:42am 26 37 mph 1023.1mb 41f 17f
9:36am 29 39 mph 1023mb 41f 17f
9:30am 30 39 mph 1022.8mb 41f 17f
9:24am 25 31 mph 1022.8mb 40f 17f
9:18am 33 43 mph 1022.7mb 41f 17f
9:12am 32 43 mph 1022.6mb 41f 17f
9:06am 26 37 mph 1022.7mb 41f 17f
9:00am 26 33 mph 1022.4mb 41f 17f
8:54am 32 41 mph 1022.5mb 41f 17f
8:48am 25 33 mph 1022.4mb 41f 17f
8:42am 32 41 mph 1022.3mb 41f 17f
8:36am 25 36 mph 1022.1mb 41f 17f
8:30am 26 37 mph 1021.9mb 41f 17f
8:24am 32 46 mph 1021.8mb 41f 17f
8:18am 22 34 mph - - -
8:12am 23 29 mph 1021.8mb 41f 17f
8:06am 31 40 mph 1021.6mb 41f 17f
8:00am 29 41 mph 1021.6mb 41f 17f
7:54am 25 33 mph 1021.5mb 41f 17f
7:48am 29 39 mph 1021.5mb - -
7:42am 22 31 mph 1021.4mb 41f 17f
7:36am 26 34 mph 1021.2mb 41f 16f
7:30am 25 32 mph 1021.2mb 41f 17f
7:24am 23 32 mph 1021mb 41f 16f
7:18am 20 26 mph 1021mb 41f 17f
7:12am 25 34 mph 1020.8mb 41f 17f
7:06am 28 37 mph 1020.6mb 41f 16f
7:00am 20 25 mph 1020.4mb 41f 16f
6:54am 21 30 mph 1020.2mb 41f 17f
6:48am 26 41 mph 1020.1mb 41f -
6:42am 26 40 mph 1019.9mb 41f 16f
6:36am 24 31 mph 1019.8mb 41f 16f
6:30am 26 36 mph 1019.8mb 40f 16f
6:24am 21 29 mph 1019.8mb 40f 16f
6:18am 26 39 mph 1019.6mb 40f 16f
6:12am 26 33 mph 1019.4mb 40f 16f
6:06am 25 40 mph 1019.3mb 40f 17f
6:00am 20 28 mph 1019.3mb 40f 17f
5:54am 25 36 mph 1019.2mb 40f 17f
5:48am 25 37 mph 1019mb - -
5:42am 17 25 mph 1019mb 40f 17f
5:36am 25 33 mph 1018.9mb 40f 17f
5:30am 28 37 mph 1018.7mb 40f 17f
5:24am 22 29 mph 1018.6mb 40f 17f
5:18am 22 32 mph 1018.5mb 40f 17f
5:12am 25 38 mph 1018.4mb 40f 17f
5:06am 23 29 mph 1018.2mb 39f 17f
5:00am 22 30 mph 1018.1mb 39f 18f
4:54am 23 30 mph 1018mb 38f 17f
4:48am 23 30 mph 1017.9mb 38f 17f
4:42am 20 28 mph 1017.9mb 38f 17f
4:36am 21 26 mph 1017.8mb 38f 17f
4:30am 26 36 mph 1017.8mb 38f 17f
4:24am 21 30 mph 1017.7mb 38f 17f
4:18am 21 31 mph 1017.6mb 38f -
4:12am 21 30 mph 1017.5mb 38f 17f
4:06am 25 36 mph 1017.5mb 38f 17f
4:00am 21 26 mph 1017.3mb 38f 17f
3:54am 20 32 mph 1017.2mb 38f 17f
3:48am 23 29 mph 1017.1mb 38f 18f
3:42am 21 28 mph 1017mb 38f 18f
3:36am 18 26 mph 1016.9mb 38f 18f
3:30am 20 30 mph 1016.8mb 38f 18f
3:24am 21 28 mph 1016.8mb 38f 19f
3:18am 20 29 mph 1016.8mb 39f 18f
3:12am 15 20 mph 1016.7mb 39f 19f
3:06am 21 29 mph 1016.7mb 39f 19f
3:00am 18 26 mph 1016.6mb 39f 19f
2:54am 25 31 mph 1016.6mb 39f 19f
2:48am 20 25 mph 1016.4mb 39f 19f
2:42am 23 32 mph 1016.4mb 39f 19f
2:36am 23 31 mph 1016.3mb 39f 19f
2:30am 22 30 mph 1016.3mb 39f 19f
2:24am 24 31 mph 1016.2mb 39f 19f
2:18am 22 29 mph 1016.2mb 39f 20f
2:12am 21 32 mph 1016.2mb 39f 19f
2:06am 20 26 mph 1016.2mb 40f 20f
2:00am 26 38 mph 1015.8mb - -
1:54am 21 26 mph 1015.7mb 40f 20f
1:48am 21 26 mph 1015.7mb 40f 20f
1:42am 23 31 mph 1015.6mb 40f 20f
1:36am 22 33 mph 1015.4mb 40f 20f
1:30am 22 31 mph 1015.2mb 40f 21f
1:24am 22 28 mph 1015.1mb 40f 21f
1:18am 24 31 mph 1014.9mb 40f 21f
1:12am 28 33 mph 1014.7mb 40f 21f
1:06am 23 33 mph 1014.6mb 40f 22f
1:00am 25 33 mph 1014.4mb 40f 22f
12:54am 22 30 mph 1014.3mb 40f 22f
12:48am 21 26 mph - - -
12:42am 20 26 mph 1014.1mb 40f 22f
12:36am 20 24 mph 1014.1mb 40f 23f
12:30am 29 38 mph 1013.9mb 40f 23f
12:24am 23 31 mph 1013.8mb 40f 23f
12:18am 22 28 mph 1013.7mb 40f 23f
12:12am 26 37 mph 1013.5mb 40f 23f
12:06am 28 34 mph 1013.4mb 40f 23f
12:00am 29 38 mph 1013.2mb 40f 24f
Sun 01/20 11:54pm 25 34 mph 1013.1mb 40f 23f
11:48pm 28 38 mph 1013mb 40f 24f
11:42pm 25 34 mph 1012.9mb 40f 24f
11:36pm 22 31 mph 1012.6mb 41f 23f
11:30pm 22 30 mph 1012.5mb 41f 24f
11:24pm 24 31 mph 1012.3mb 41f 24f
11:18pm 26 36 mph 1012.2mb 41f -
11:12pm 26 38 mph 1012.1mb 41f 24f
11:06pm 28 38 mph 1012mb 41f 24f
11:00pm 29 41 mph 1011.9mb 41f 25f
10:54pm 26 33 mph 1012mb 41f 24f
10:48pm 25 34 mph 1011.9mb 41f 25f
10:42pm 26 39 mph 1011.6mb 41f 25f
10:36pm 30 44 mph 1011.4mb 41f 25f
10:30pm 28 37 mph 1011.3mb 41f 25f
10:24pm 28 34 mph 1011.2mb 42f 26f
10:18pm 28 37 mph 1011mb 42f 26f
10:12pm 25 36 mph 1010.9mb 42f 26f
10:06pm 22 28 mph 1010.7mb 42f 26f
10:00pm 26 34 mph 1010.3mb 42f 26f
9:54pm 28 40 mph 1010.3mb 42f 26f
9:48pm 29 39 mph 1010.3mb 42f 27f
9:42pm 22 32 mph 1010.1mb 42f 27f
9:36pm 24 34 mph 1009.9mb 42f 27f
9:30pm 25 36 mph 1009.8mb 42f 27f
9:24pm 17 22 mph 1009.7mb 42f 28f
9:18pm 20 28 mph 1009.5mb 42f 28f
9:12pm 24 34 mph 1009.4mb 42f 28f
9:06pm 23 32 mph 1009.1mb 42f 28f
9:00pm 26 37 mph 1009mb 42f 28f
8:54pm 25 33 mph 1008.8mb 42f 28f
8:48pm 25 31 mph 1008.5mb 42f 28f
8:42pm 25 33 mph 1008.4mb 42f 29f
8:36pm 24 32 mph 1008.5mb 42f 29f
8:30pm 29 36 mph 1008.4mb 42f 29f
8:24pm 21 25 mph 1008.3mb 42f 29f
8:18pm 23 32 mph 1008.1mb - -
8:12pm 24 36 mph 1008mb 42f 29f
8:06pm 25 31 mph 1007.8mb 42f 29f
8:00pm 23 33 mph 1007.6mb 42f 30f
7:48pm 20 32 mph 1007.2mb 42f 30f
7:42pm 23 30 mph 1007.2mb 42f 30f
7:36pm 24 32 mph 1007mb 42f 31f
7:30pm 28 36 mph 1006.9mb 42f 31f
7:24pm 25 36 mph 1006.7mb 42f 31f
7:18pm 28 34 mph - - -
7:12pm 26 34 mph 1006.4mb 42f 31f
7:06pm 25 34 mph 1006.2mb 43f 31f
7:00pm 23 29 mph 1006mb 43f 31f
6:54pm 23 29 mph 1005.8mb 43f 32f
6:48pm 23 33 mph - - -
6:42pm 24 34 mph 1005.5mb 43f 32f
6:36pm 25 34 mph 1005.2mb 43f 32f
6:30pm 26 38 mph 1005mb 43f 32f
6:24pm 23 31 mph 1004.9mb 43f 33f
6:18pm 23 33 mph 1004.6mb 43f 33f
6:12pm 26 38 mph 1004.4mb 43f 33f
6:06pm 25 32 mph 1004.1mb 43f 33f
6:00pm 29 40 mph 1003.9mb 43f 33f
5:54pm 23 29 mph 1003.6mb 43f 34f
5:48pm 26 36 mph 1003.2mb 43f 34f
5:42pm 28 38 mph 1003mb 43f 35f
5:36pm 22 33 mph 1003mb 43f 35f
5:30pm 31 41 mph 1002.7mb 43f 35f
5:24pm 28 38 mph 1002.6mb 43f 35f
5:18pm 22 31 mph 1002.5mb 43f 35f
5:12pm 24 33 mph 1002.3mb 43f 36f
5:06pm 22 29 mph 1002.2mb 43f 36f
5:00pm 23 28 mph 1001.8mb 43f 36f
4:54pm 23 29 mph 1001.5mb 43f 37f
4:48pm 28 45 mph 1001.4mb 43f -
4:42pm 22 29 mph 1001.2mb 43f 38f
4:36pm 20 28 mph 1001mb 43f 38f
4:30pm 24 32 mph 1000.7mb 43f 38f
4:24pm 24 34 mph 1000.6mb 43f 38f
4:18pm 24 33 mph 1000.3mb 43f 38f
4:12pm 26 37 mph 1000.1mb 43f 38f
4:06pm 21 28 mph 1000mb 43f 38f
4:00pm 20 25 mph 999.8mb 43f 39f
3:54pm 20 29 mph 999.4mb 43f 39f
3:48pm 28 37 mph 999.1mb 43f 39f
3:42pm 29 37 mph 998.9mb 43f 39f
3:36pm 28 33 mph 998.8mb 43f 39f
3:30pm 28 34 mph 998.8mb 43f 39f
3:24pm 29 33 mph 998.8mb 43f 39f
3:18pm 24 30 mph 998.7mb 43f 40f
3:12pm 17 22 mph 998.6mb 43f 40f
3:06pm 24 32 mph 998.5mb 43f 40f
3:00pm 26 34 mph 997.9mb 43f 40f
2:54pm 25 33 mph 997.8mb 43f 41f
2:48pm 24 33 mph 997.8mb 43f 41f
2:42pm 22 33 mph 997.7mb 43f 41f
2:36pm 21 31 mph 997.5mb 43f 42f
2:30pm 28 37 mph 997.3mb 43f 42f
2:24pm 26 39 mph 997mb 43f 42f
2:18pm 30 41 mph 996.8mb 43f 42f
2:12pm 29 36 mph 996.5mb 43f 42f
2:06pm 25 33 mph 996.4mb 43f 43f
2:00pm 28 37 mph 996.3mb 43f 43f
1:54pm 24 32 mph 996mb 43f 43f
1:48pm 23 32 mph 995.8mb 43f 44f
1:42pm 28 32 mph 995.7mb 43f 44f
1:36pm 18 26 mph 995.5mb 43f 45f
1:30pm 22 29 mph 995.3mb 43f 45f
1:24pm 26 34 mph 995.2mb 43f 45f
1:18pm 32 39 mph 995.2mb 43f 45f
1:12pm 32 45 mph 995.2mb 43f 46f
1:06pm 29 38 mph 995.1mb 42f 46f
1:00pm 29 38 mph 994.9mb 42f 46f
12:54pm 32 40 mph 994.8mb 42f 46f
12:48pm 28 36 mph 994.6mb 42f 46f
12:42pm 31 41 mph 994.5mb 42f 46f
12:36pm 29 44 mph 994.6mb 42f 46f
12:30pm 25 34 mph 994.7mb 42f 46f
12:24pm 23 30 mph 994.6mb 42f 46f
12:18pm 26 32 mph 994.5mb 42f 46f
12:12pm 23 31 mph 994.6mb 42f 47f
12:06pm 28 36 mph 994.4mb 42f 47f
12:00pm 28 34 mph 994.4mb 42f 48f
11:54am 26 33 mph 994.3mb 42f 48f
11:48am 26 39 mph 994.4mb - -
11:42am 25 34 mph 994.3mb 42f 49f
11:36am 22 31 mph 994.2mb 42f 49f
11:30am 26 40 mph 994.1mb 42f 51f
11:24am 21 31 mph 994.1mb 42f 51f
11:18am 24 32 mph 994.1mb 42f 51f
11:12am 28 40 mph 993.8mb 42f 52f
11:06am 17 23 mph 993.2mb 42f 58f
11:00am 13 18 mph 993.3mb 42f 55f
10:54am 14 25 mph 993.3mb 42f 53f